Decoded Metar for RJNK (KANAZAWA in JAPAN) (IATA:KMQ) | Meteo·Mobile Aviation Weather
aviador You're here:

RJNK Decoded Metar

KANAZAWA in JAPAN
Report Time2019-10-22 14:00:00
UTC Time2019-10-22 14:24:24
Flight Rules vfr VFR
Wind030° at 06 kt
W.Decomp.*RWY 06: 5.5 kt HW 2.3 kt LCW
Visibility9999 m
Phenomena:N/A
Clouds:Few 040 Hf
Expected CloudBase > 1,600 ft AGL from Temp-Dew spread
CeilingNone
Temp18°C (ISA +3)
Dew Point14°C (78% RH)
AAT17.1°C
QNH1014 hPa
Density Alt568 ft
Elevation30 ft
Report Wrong Elevation
Raw Report
METAR RJNK 221400Z 03006KT 9999 FEW040 18/14 Q1014=

Extra information for RJNK:More info

Metar Taf Metar & Taf Last 4 Metars F.Rules Stats Wind Profile Meteogram Temp Stats Airport Information Weather charts Add Link Nearby VenuesMetar ALERT Operation Metar Decoded Social comments